Amalia — SXMT — position and weather

sailwx.info

Track history (hours):
 
Tides and Currents Weather Stations Pressure Air Temp Water Temp Dewpoint Dewpoint Depression Visibility Wind Speed Wind Dir Waves Ship Positions

Amalia

Last reported at 2016-Jul-24 10:29 UTC. Time now 2016-Jul-24 10:40 UTC.
Position S 23°57' W 046°18'.

Length 225 m; draft 6.6 m.

Type: Ship. MMSI: 239652000.

Date/timePositionNaut miles runAvg speedWind from/ knotsBaromVisibWave heightAir tempDewpointWater temp
2016-Jul-24 10:29S 23°57' W 046°18'0 0.0
2016-Jul-24 09:29S 23°57' W 046°18'0 0.0
2016-Jul-24 08:29S 23°57' W 046°18'0 0.0
2016-Jul-24 07:33S 23°57' W 046°18'4 4.3
2016-Jul-24 06:33S 24°01' W 046°21'3 2.6
2016-Jul-24 05:33S 24°04' W 046°22'4 4.2
2016-Jul-24 04:33S 24°08' W 046°22'7 6.8
2016-Jul-24 03:33S 24°14' W 046°20'6 5.6
2016-Jul-24 02:33S 24°19' W 046°17'8 8.3
2016-Jul-24 01:33S 24°23' W 046°10'  
Track history (hours):
 
Tides and Currents Weather Stations Pressure Air Temp Water Temp Dewpoint Dewpoint Depression Visibility Wind Speed Wind Dir Waves Ship Positions

Amalia

Last reported at 2016-Jul-24 10:29 UTC. Time now 2016-Jul-24 10:40 UTC.
Position S 23°57' W 046°18'.

Length 225 m; draft 6.6 m.

Type: Ship. MMSI: 239652000.

Date/timePositionNaut miles runAvg speedWind from/ knotsBaromVisibWave heightAir tempDewpointWater temp
2016-Jul-24 10:29S 23°57' W 046°18'0 0.0
2016-Jul-24 09:29S 23°57' W 046°18'0 0.0
2016-Jul-24 08:29S 23°57' W 046°18'0 0.0
2016-Jul-24 07:33S 23°57' W 046°18'4 4.3
2016-Jul-24 06:33S 24°01' W 046°21'3 2.6
2016-Jul-24 05:33S 24°04' W 046°22'4 4.2
2016-Jul-24 04:33S 24°08' W 046°22'7 6.8
2016-Jul-24 03:33S 24°14' W 046°20'6 5.6
2016-Jul-24 02:33S 24°19' W 046°17'8 8.3
2016-Jul-24 01:33S 24°23' W 046°10'  

Dump ship's entire track history